Currently 67°F in San Jacinto, California, USA
67°F
69°F / 67°F
16 mph NE
0.00"
Saturday, April 29, 2017 2:14 AM PDT

San Jacinto, California Weather Summary
Last 36 Hours

Temperature Winds Hourly Humidity Dewpoint
Time Report Norm Report Norm Max Gusts Precip. Rpt. Norm Rpt. Norm Pressure
1Sat 02:14 AM  66.7°F  53°F  16 mph NE  1 mph  30 mph  0.00"  13%  78%  12°F  46°F  29.97"
3Sat 02:08 AM  66.7°F  53°F  22 mph E  1 mph  31 mph  ----  13%  78%  12°F  46°F  29.97"
Sat 02:00 AM  67.1°F  53°F  17 mph NE  1 mph  34 mph  0.00"  13%  78%  12°F  46°F  29.97"
Sat 01:00 AM  68.4°F  54°F  10 mph E  1 mph  34 mph  0.00"  12%  77%  12°F  47°F  29.95"
2Sat 12:00 AM  69.4°F  55°F  17 mph E  1 mph  33 mph  0.00"  11%  75%  10°F  47°F  29.92"
Fri 11:00 PM  67.3°F  57°F  10 mph E  1 mph  11 mph  0.00"  14%  71%  14°F  47°F  29.91"
Fri 10:00 PM  66.6°F  58°F  6 mph SE  1 mph  14 mph  0.00"  38%  67%  39°F  47°F  29.89"
Fri 09:00 PM  68.5°F  60°F  4 mph SW  1 mph  5 mph  0.00"  30%  63%  35°F  47°F  29.87"
Fri 08:00 PM  71.2°F  63°F  1 mph SW  2 mph  11 mph  0.00"  34%  56%  40°F  46°F  29.84"
Fri 07:00 PM  76.3°F  66°F  4 mph SW  3 mph  20 mph  0.00"  23%  48%  34°F  45°F  29.80"
Fri 06:00 PM  78.3°F  70°F  9 mph W  4 mph  22 mph  0.00"  19%  40%  31°F  44°F  29.78"
Fri 05:00 PM  80.2°F  72°F  12 mph NW  5 mph  25 mph  0.00"  15%  35%  27°F  42°F  29.78"
Fri 04:00 PM  80.1°F  73°F  13 mph NW  5 mph  26 mph  0.00"  13%  32%  23°F  40°F  29.79"
Fri 03:00 PM  79.7°F  74°F  17 mph W  4 mph  23 mph  0.00"  12%  31%  21°F  40°F  29.80"
Fri 02:00 PM  78.8°F  73°F  10 mph W  3 mph  20 mph  0.00"  13%  31%  22°F  39°F  29.81"
Fri 01:00 PM  77.5°F  72°F  7 mph SW  2 mph  18 mph  0.00"  15%  33%  24°F  40°F  29.83"
Fri 12:00 PM  75.4°F  69°F  1 mph SW  2 mph  11 mph  0.00"  22%  37%  32°F  41°F  29.86"
Fri 11:00 AM  72.3°F  66°F  3 mph NW  2 mph  8 mph  0.00"  26%  44%  34°F  43°F  29.87"
Fri 10:00 AM  68.5°F  62°F  1 mph SW  1 mph  6 mph  0.00"  34%  53%  38°F  44°F  29.87"
Fri 09:00 AM  63.0°F  58°F  2 mph S  1 mph  5 mph  0.00"  59%  63%  48°F  45°F  29.87"
Fri 08:00 AM  55.2°F  55°F  1 mph SE  1 mph  7 mph  0.00"  78%  72%  48°F  45°F  29.88"
Fri 07:00 AM  52.3°F  51°F  2 mph SE  1 mph  7 mph  0.00"  83%  79%  47°F  44°F  29.86"
Fri 06:00 AM  52.3°F  50°F  1 mph SE  1 mph  6 mph  0.00"  82%  81%  47°F  44°F  29.84"
Fri 05:00 AM  53.1°F  50°F  3 mph SE  1 mph  5 mph  0.00"  85%  81%  49°F  44°F  29.83"
Fri 04:00 AM  54.3°F  51°F  calm  1 mph  6 mph  0.00"  86%  80%  50°F  45°F  29.83"
Fri 03:00 AM  55.9°F  52°F  calm  1 mph  6 mph  0.00"  85%  78%  51°F  45°F  29.82"
Fri 02:00 AM  57.2°F  53°F  calm  1 mph  3 mph  0.00"  81%  78%  51°F  46°F  29.82"
Fri 01:00 AM  58.6°F  54°F  calm  1 mph  none  0.00"  77%  78%  51°F  47°F  29.84"
Fri 12:00 AM  60.1°F  55°F  calm  1 mph  6 mph  0.00"  75%  76%  52°F  47°F  29.83"
Thu 11:00 PM  62.1°F  56°F  4 mph SW  1 mph  5 mph  0.00"  72%  73%  53°F  47°F  29.83"
Thu 10:00 PM  63.7°F  58°F  calm  1 mph  3 mph  0.00"  70%  69%  53°F  47°F  29.83"
Thu 09:00 PM  65.5°F  60°F  calm  2 mph  6 mph  0.00"  66%  64%  53°F  47°F  29.82"
Thu 08:00 PM  67.3°F  62°F  calm  2 mph  11 mph  0.00"  64%  57%  54°F  46°F  29.82"
Thu 07:00 PM  70.9°F  66°F  8 mph SW  3 mph  13 mph  0.00"  58%  49%  55°F  45°F  29.80"
Thu 06:00 PM  73.0°F  69°F  3 mph S  4 mph  17 mph  0.00"  55%  41%  55°F  44°F  29.81"
Thu 05:00 PM  75.6°F  72°F  11 mph S  4 mph  16 mph  0.00"  51%  36%  56°F  43°F  29.80"
Thu 04:00 PM  76.8°F  73°F  11 mph W  5 mph  13 mph  0.00"  38%  33%  48°F  41°F  29.80"
Thu 03:00 PM  76.5°F  73°F  4 mph S  4 mph  11 mph  0.00"  43%  32%  52°F  40°F  29.80"

  1. Current weather data. No green row appears if the current weather data is also the high or low for the current day.
  2. High temperature for the current day.
  3. Low temperature for the current day.

The San Jacinto, California weather pages are a service of WeatherCurrents. San Jacinto is located in the heart of the San Jacinto Valley, near Hemet, the Soboba Casino, and at the foot of the San Jacinto Mountains.
Copyright ©Sat Apr 29 02:16:00 PDT 2017  WeatherCurrents. All rights reserved. - Submit questions and comments - Privacy Policy

This page automatically refreshes every 10 minutes.